Time;durP1;ratioP1;P1;durP2;ratioP2;P2;SDS_P1;SDS_P2;PMS_P1;PMS_P2;Temp;Humidity;BMP_temperature;BMP_pressure;BME280_temperature;BME280_humidity;BME280_pressure;Samples;Min_cycle;Max_cycle;Signal;HPM_P1;HPM_P2
2023/09/18 00:01:39;;;;;;;;;;;;;;;;;;5115445;28;20368;-24
2023/09/18 00:04:05;;;;;;;;;;;;;;;;;;5115080;28;20270;-24
2023/09/18 00:06:31;;;;;;;;;;;;;;;;;;5097129;28;19912;-26
2023/09/18 00:08:57;;;;;;;;;;;;;;;;;;5115047;28;19972;-23
2023/09/18 00:11:22;;;;;;;;;;;;;;;;;;5115046;28;19981;-25
2023/09/18 00:13:48;;;;;;;;;;;;;;;;;;5114970;28;19915;-27
2023/09/18 00:16:14;;;;;;;;;;;;;;;;;;5115311;28;19909;-28
2023/09/18 00:18:41;;;;;;;;;;;;;;;;;;5115252;28;19908;-27
2023/09/18 00:21:10;;;;;;;;;;;;;;;;;;5114725;28;19926;-26
2023/09/18 00:23:36;;;;;;;;;;;;;;;;;;5114910;28;19926;-27
2023/09/18 00:26:02;;;;;;;;;;;;;;;;;;5115130;28;19995;-29
2023/09/18 00:28:27;;;;;;;;;;;;;;;;;;5114860;28;19916;-25
2023/09/18 00:30:53;;;;;;;;;;;;;;;;;;5117523;28;19966;-26
2023/09/18 00:33:19;;;;;;;;;;;;;;;;;;5100920;28;19919;-24
2023/09/18 00:35:45;;;;;;;;;;;;;;;;;;5119283;28;19923;-25
2023/09/18 00:38:11;;;;;;;;;;;;;;;;;;5118990;28;19915;-24
2023/09/18 00:40:37;;;;;;;;;;;;;;;;;;5118926;28;19958;-28
2023/09/18 00:43:03;;;;;;;;;;;;;;;;;;5118849;28;19908;-25
2023/09/18 00:45:29;;;;;;;;;;;;;;;;;;5118825;28;19908;-26
2023/09/18 00:47:55;;;;;;;;;;;;;;;;;;5118860;28;19907;-25
2023/09/18 00:50:21;;;;;;;;;;;;;;;;;;5118679;28;19968;-24
2023/09/18 00:52:47;;;;;;;;;;;;;;;;;;5118669;28;19914;-28
2023/09/18 00:55:13;;;;;;;;;;;;;;;;;;5100500;28;19907;-25
2023/09/18 00:57:39;;;;;;;;;;;;;;;;;;5118576;28;19908;-25
2023/09/18 01:00:05;;;;;;;;;;;;;;;;;;5118526;28;19965;-24
2023/09/18 01:02:31;;;;;;;;;;;;;;;;;;5118480;28;19907;-30
2023/09/18 01:04:57;;;;;;;;;;;;;;;;;;5118449;28;19934;-24
2023/09/18 01:07:23;;;;;;;;;;;;;;;;;;5118318;28;19912;-23
2023/09/18 01:09:49;;;;;;;;;;;;;;;;;;5118376;28;19912;-27
2023/09/18 01:12:15;;;;;;;;;;;;;;;;;;5118364;28;19968;-30
2023/09/18 01:14:41;;;;;;;;;;;;;;;;;;5118136;28;19908;-24
2023/09/18 01:17:07;;;;;;;;;;;;;;;;;;5118217;28;19908;-26
2023/09/18 01:19:33;;;;;;;;;;;;;;;;;;5118426;28;19912;-26
2023/09/18 01:21:59;;;;;;;;;;;;;;;;;;5099911;28;19916;-25
2023/09/18 01:24:25;;;;;;;;;;;;;;;;;;5118227;28;20325;-26
2023/09/18 01:26:51;;;;;;;;;;;;;;;;;;5118160;28;20338;-28
2023/09/18 01:29:19;;;;;;;;;;;;;;;;;;5117915;28;19920;-27
2023/09/18 01:31:48;;;;;;;;;;;;;;;;;;5117956;28;19938;-23
2023/09/18 01:34:13;;;;;;;;;;;;;;;;;;5117740;28;19908;-29
2023/09/18 01:36:39;;;;;;;;;;;;;;;;;;5117832;28;19908;-23
2023/09/18 01:39:05;;;;;;;;;;;;;;;;;;5117816;28;19955;-27
2023/09/18 01:41:31;;;;;;;;;;;;;;;;;;5117458;28;20223;-24
2023/09/18 01:43:57;;;;;;;;;;;;;;;;;;5117788;28;19908;-28
2023/09/18 01:46:23;;;;;;;;;;;;;;;;;;5117613;28;20299;-28
2023/09/18 01:48:49;;;;;;;;;;;;;;;;;;5117761;28;20253;-30
2023/09/18 01:51:16;;;;;;;;;;;;;;;;;;5117563;28;20334;-27
2023/09/18 01:53:41;;;;;;;;;;;;;;;;;;5117446;28;19907;-26
2023/09/18 01:56:08;;;;;;;;;;;;;;;;;;5117504;28;19919;-25
2023/09/18 01:58:34;;;;;;;;;;;;;;;;;;5099428;28;20315;-25
2023/09/18 02:01:00;;;;;;;;;;;;;;;;;;5117416;28;19908;-25
2023/09/18 02:03:26;;;;;;;;;;;;;;;;;;5117505;28;19914;-26
2023/09/18 02:05:52;;;;;;;;;;;;;;;;;;5117280;28;20234;-26
2023/09/18 02:08:18;;;;;;;;;;;;;;;;;;5117183;28;20346;-29
2023/09/18 02:10:44;;;;;;;;;;;;;;;;;;5117191;28;20229;-24
2023/09/18 02:13:10;;;;;;;;;;;;;;;;;;5117308;28;19930;-24
2023/09/18 02:15:36;;;;;;;;;;;;;;;;;;5117061;28;19908;-27
2023/09/18 02:18:02;;;;;;;;;;;;;;;;;;5099131;28;20010;-27
2023/09/18 02:20:28;;;;;;;;;;;;;;;;;;5098780;28;19947;-27
2023/09/18 02:22:54;;;;;;;;;;;;;;;;;;5117000;28;20342;-27
2023/09/18 02:25:20;;;;;;;;;;;;;;;;;;5117082;28;20330;-32
2023/09/18 02:27:46;;;;;;;;;;;;;;;;;;5117164;28;19914;-26
2023/09/18 02:30:12;;;;;;;;;;;;;;;;;;5116652;28;20023;-24
2023/09/18 02:32:38;;;;;;;;;;;;;;;;;;5117039;28;19951;-25
2023/09/18 02:35:04;;;;;;;;;;;;;;;;;;5116689;28;20006;-24
2023/09/18 02:37:30;;;;;;;;;;;;;;;;;;5117351;28;20015;-24
2023/09/18 02:39:56;;;;;;;;;;;;;;;;;;5116607;28;19908;-30
2023/09/18 02:42:21;;;;;;;;;;;;;;;;;;5116617;28;19933;-27
2023/09/18 02:44:47;;;;;;;;;;;;;;;;;;5116513;28;20350;-29
2023/09/18 02:47:13;;;;;;;;;;;;;;;;;;5116465;28;19915;-26
2023/09/18 02:49:39;;;;;;;;;;;;;;;;;;5116575;28;19912;-24
2023/09/18 02:52:05;;;;;;;;;;;;;;;;;;5116001;28;19907;-31
2023/09/18 02:54:31;;;;;;;;;;;;;;;;;;5115910;28;19907;-23
2023/09/18 02:56:57;;;;;;;;;;;;;;;;;;5116292;28;20017;-26
2023/09/18 02:59:23;;;;;;;;;;;;;;;;;;5116160;28;19912;-25
2023/09/18 03:01:49;;;;;;;;;;;;;;;;;;5116087;28;19914;-24
2023/09/18 03:04:15;;;;;;;;;;;;;;;;;;5115996;28;19915;-23
2023/09/18 03:06:41;;;;;;;;;;;;;;;;;;5116305;28;19994;-25
2023/09/18 03:09:07;;;;;;;;;;;;;;;;;;5116008;28;19915;-27
2023/09/18 03:11:33;;;;;;;;;;;;;;;;;;5116172;28;19920;-26
2023/09/18 03:13:59;;;;;;;;;;;;;;;;;;5115870;28;19916;-26
2023/09/18 03:16:25;;;;;;;;;;;;;;;;;;5097998;28;20323;-26
2023/09/18 03:18:51;;;;;;;;;;;;;;;;;;5116910;28;19961;-26
2023/09/18 03:21:17;;;;;;;;;;;;;;;;;;5115676;28;19951;-25
2023/09/18 03:23:43;;;;;;;;;;;;;;;;;;5115651;28;19912;-23
2023/09/18 03:26:09;;;;;;;;;;;;;;;;;;5115785;28;19911;-23
2023/09/18 03:28:35;;;;;;;;;;;;;;;;;;5115780;28;20278;-27
2023/09/18 03:31:01;;;;;;;;;;;;;;;;;;5115609;28;19908;-29
2023/09/18 03:33:26;;;;;;;;;;;;;;;;;;5115453;28;19969;-25
2023/09/18 03:35:54;;;;;;;;;;;;;;;;;;5115778;28;19911;-33
2023/09/18 03:38:20;;;;;;;;;;;;;;;;;;5115461;28;19908;-22
2023/09/18 03:40:46;;;;;;;;;;;;;;;;;;5115361;28;19907;-24
2023/09/18 03:43:12;;;;;;;;;;;;;;;;;;5115577;28;19973;-24
2023/09/18 03:45:40;;;;;;;;;;;;;;;;;;5115248;28;19908;-26
2023/09/18 03:48:06;;;;;;;;;;;;;;;;;;5115786;28;20246;-28
2023/09/18 03:50:32;;;;;;;;;;;;;;;;;;5115224;28;19923;-29
2023/09/18 03:52:58;;;;;;;;;;;;;;;;;;5115424;28;19907;-27
2023/09/18 03:55:24;;;;;;;;;;;;;;;;;;5097164;28;19923;-26
2023/09/18 03:57:50;;;;;;;;;;;;;;;;;;5115213;28;19908;-24
2023/09/18 04:03:01;;;;;;;;;;;;;;;;;;5532953;22;19934;-22
2023/09/18 04:05:27;;;;;;;;;;;;;;;;;;5115073;28;20345;-32
2023/09/18 04:07:53;;;;;;;;;;;;;;;;;;5115108;28;19915;-22
2023/09/18 04:10:22;;;;;;;;;;;;;;;;;;5114730;28;19911;-22
2023/09/18 04:12:50;;;;;;;;;;;;;;;;;;5115231;28;19963;-23
2023/09/18 04:15:18;;;;;;;;;;;;;;;;;;5114969;28;19912;-22
2023/09/18 04:17:44;;;;;;;;;;;;;;;;;;5114932;28;19919;-21
2023/09/18 04:20:10;;;;;;;;;;;;;;;;;;5114919;28;19918;-22
2023/09/18 04:22:36;;;;;;;;;;;;;;;;;;5096600;28;20413;-20
2023/09/18 04:25:05;;;;;;;;;;;;;;;;;;5114837;28;19908;-20
2023/09/18 04:27:31;;;;;;;;;;;;;;;;;;5096771;28;19908;-20
2023/09/18 04:29:57;;;;;;;;;;;;;;;;;;5114683;28;19980;-20
2023/09/18 04:32:23;;;;;;;;;;;;;;;;;;5115392;28;20218;-20
2023/09/18 04:34:49;;;;;;;;;;;;;;;;;;5114580;28;19908;-24
2023/09/18 04:37:15;;;;;;;;;;;;;;;;;;5114527;28;20354;-21
2023/09/18 04:39:41;;;;;;;;;;;;;;;;;;5114653;28;19908;-22
2023/09/18 04:42:07;;;;;;;;;;;;;;;;;;5114678;28;19918;-20
2023/09/18 04:44:33;;;;;;;;;;;;;;;;;;5114643;28;19908;-22
2023/09/18 04:46:59;;;;;;;;;;;;;;;;;;5114549;28;20330;-20
2023/09/18 04:49:26;;;;;;;;;;;;;;;;;;5096733;28;19919;-21
2023/09/18 04:51:51;;;;;;;;;;;;;;;;;;5114443;28;19954;-19
2023/09/18 04:54:17;;;;;;;;;;;;;;;;;;5114505;28;19908;-21
2023/09/18 04:56:43;;;;;;;;;;;;;;;;;;5096453;28;19999;-22
2023/09/18 04:59:09;;;;;;;;;;;;;;;;;;5114654;28;19959;-21
2023/09/18 05:01:35;;;;;;;;;;;;;;;;;;5096550;28;20388;-21
2023/09/18 05:04:01;;;;;;;;;;;;;;;;;;5114003;28;19919;-22
2023/09/18 05:06:28;;;;;;;;;;;;;;;;;;5114393;28;19914;-21
2023/09/18 05:08:55;;;;;;;;;;;;;;;;;;5114570;28;19912;-20
2023/09/18 05:11:21;;;;;;;;;;;;;;;;;;5114448;28;19908;-21
2023/09/18 05:13:47;;;;;;;;;;;;;;;;;;5096221;28;19999;-22
2023/09/18 05:16:13;;;;;;;;;;;;;;;;;;5115699;28;20365;-20
2023/09/18 05:18:40;;;;;;;;;;;;;;;;;;5117824;28;19984;-21
2023/09/18 05:21:06;;;;;;;;;;;;;;;;;;5099727;28;19931;-20
2023/09/18 05:23:32;;;;;;;;;;;;;;;;;;5117832;28;19923;-21
2023/09/18 05:25:59;;;;;;;;;;;;;;;;;;5117898;28;20394;-21
2023/09/18 05:28:25;;;;;;;;;;;;;;;;;;5117539;28;19951;-19
2023/09/18 05:30:52;;;;;;;;;;;;;;;;;;5118281;28;19942;-21
2023/09/18 05:33:19;;;;;;;;;;;;;;;;;;5118511;28;20349;-21
2023/09/18 05:35:45;;;;;;;;;;;;;;;;;;5117770;28;19955;-20
2023/09/18 05:38:13;;;;;;;;;;;;;;;;;;5117688;28;19907;-20
2023/09/18 05:40:39;;;;;;;;;;;;;;;;;;5117871;28;19976;-20
2023/09/18 05:43:05;;;;;;;;;;;;;;;;;;5117649;28;20386;-20
2023/09/18 05:45:32;;;;;;;;;;;;;;;;;;5117423;28;20226;-22
2023/09/18 05:48:03;;;;;;;;;;;;;;;;;;5117327;28;20369;-20
2023/09/18 05:50:30;;;;;;;;;;;;;;;;;;5099141;28;19911;-20
2023/09/18 05:52:59;;;;;;;;;;;;;;;;;;5098957;28;20400;-22
2023/09/18 05:55:25;;;;;;;;;;;;;;;;;;5116898;28;19907;-21
2023/09/18 05:57:51;;;;;;;;;;;;;;;;;;5116940;28;19935;-21
2023/09/18 06:00:17;;;;;;;;;;;;;;;;;;5117206;28;19908;-20
2023/09/18 06:02:45;;;;;;;;;;;;;;;;;;5098649;28;19919;-20
2023/09/18 06:05:11;;;;;;;;;;;;;;;;;;5117469;28;20245;-20
2023/09/18 06:07:37;;;;;;;;;;;;;;;;;;5117361;28;19907;-21
2023/09/18 06:10:03;;;;;;;;;;;;;;;;;;5099127;28;19922;-20
2023/09/18 06:12:29;;;;;;;;;;;;;;;;;;5116612;28;20006;-21
2023/09/18 06:14:55;;;;;;;;;;;;;;;;;;5115864;28;19912;-20
2023/09/18 06:17:22;;;;;;;;;;;;;;;;;;5115753;28;19914;-28
2023/09/18 06:19:48;;;;;;;;;;;;;;;;;;5115677;28;20006;-22
2023/09/18 06:22:13;;;;;;;;;;;;;;;;;;5097440;28;19969;-24
2023/09/18 06:24:39;;;;;;;;;;;;;;;;;;5115545;28;19916;-21
2023/09/18 06:27:05;;;;;;;;;;;;;;;;;;5114792;28;19912;-21
2023/09/18 06:29:31;;;;;;;;;;;;;;;;;;5096900;28;19912;-21
2023/09/18 06:31:57;;;;;;;;;;;;;;;;;;5097213;28;19916;-21
2023/09/18 06:34:23;;;;;;;;;;;;;;;;;;5115218;28;19918;-20
2023/09/18 06:36:49;;;;;;;;;;;;;;;;;;5115558;28;19930;-21
2023/09/18 06:39:16;;;;;;;;;;;;;;;;;;5116428;28;19914;-21
2023/09/18 06:41:42;;;;;;;;;;;;;;;;;;5116579;28;19996;-20
2023/09/18 06:44:08;;;;;;;;;;;;;;;;;;5116214;28;19919;-20
2023/09/18 06:46:34;;;;;;;;;;;;;;;;;;5116265;28;19950;-20
2023/09/18 06:49:00;;;;;;;;;;;;;;;;;;5098118;28;19911;-21
2023/09/18 06:51:27;;;;;;;;;;;;;;;;;;5097801;28;19912;-22
2023/09/18 06:53:53;;;;;;;;;;;;;;;;;;5115787;28;19907;-21
2023/09/18 06:56:19;;;;;;;;;;;;;;;;;;5097849;28;19908;-23
2023/09/18 06:58:47;;;;;;;;;;;;;;;;;;5097931;28;19908;-21
2023/09/18 07:01:15;;;;;;;;;;;;;;;;;;5097890;28;20007;-23
2023/09/18 07:03:41;;;;;;;;;;;;;;;;;;5097604;28;19919;-21
2023/09/18 07:06:06;;;;;;;;;;;;;;;;;;5116207;28;19908;-21
2023/09/18 07:08:33;;;;;;;;;;;;;;;;;;5115757;28;19974;-20
2023/09/18 07:10:59;;;;;;;;;;;;;;;;;;5116225;28;20317;-21
2023/09/18 07:13:25;;;;;;;;;;;;;;;;;;5115637;28;19915;-23
2023/09/18 07:15:51;;;;;;;;;;;;;;;;;;5115878;28;19908;-21
2023/09/18 07:18:17;;;;;;;;;;;;;;;;;;5115933;28;19968;-21
2023/09/18 07:20:43;;;;;;;;;;;;;;;;;;5097471;28;19938;-19
2023/09/18 07:23:09;;;;;;;;;;;;;;;;;;5115461;28;19908;-20
2023/09/18 07:25:38;;;;;;;;;;;;;;;;;;5115750;28;19908;-23
2023/09/18 07:28:04;;;;;;;;;;;;;;;;;;5115387;28;20303;-20
2023/09/18 07:30:30;;;;;;;;;;;;;;;;;;5115088;28;19912;-19
2023/09/18 07:33:00;;;;;;;;;;;;;;;;;;5097570;28;19966;-21
2023/09/18 07:35:26;;;;;;;;;;;;;;;;;;5115335;28;19912;-23
2023/09/18 07:37:52;;;;;;;;;;;;;;;;;;5097417;28;19908;-21
2023/09/18 07:40:18;;;;;;;;;;;;;;;;;;5115009;28;19953;-22
2023/09/18 07:42:44;;;;;;;;;;;;;;;;;;5115456;28;20017;-20
2023/09/18 07:45:10;;;;;;;;;;;;;;;;;;5115156;28;19908;-20
2023/09/18 07:47:36;;;;;;;;;;;;;;;;;;5116434;28;19923;-20
2023/09/18 07:50:02;;;;;;;;;;;;;;;;;;5115189;28;19952;-23
2023/09/18 07:52:29;;;;;;;;;;;;;;;;;;5115180;28;19908;-21
2023/09/18 07:54:55;;;;;;;;;;;;;;;;;;5115424;28;19918;-21
2023/09/18 07:57:22;;;;;;;;;;;;;;;;;;5115132;28;20361;-22
2023/09/18 07:59:48;;;;;;;;;;;;;;;;;;5097055;28;19918;-23
2023/09/18 08:02:14;;;;;;;;;;;;;;;;;;5096629;28;19908;-20
2023/09/18 08:04:40;;;;;;;;;;;;;;;;;;5115274;28;19915;-21
2023/09/18 08:07:06;;;;;;;;;;;;;;;;;;5115000;28;19912;-20
2023/09/18 08:09:35;;;;;;;;;;;;;;;;;;5114755;28;19912;-22
2023/09/18 08:12:01;;;;;;;;;;;;;;;;;;5114862;28;20357;-21
2023/09/18 08:14:27;;;;;;;;;;;;;;;;;;5114863;28;19915;-21
2023/09/18 08:16:53;;;;;;;;;;;;;;;;;;5114970;28;19908;-21
2023/09/18 08:19:19;;;;;;;;;;;;;;;;;;5114674;28;20267;-20
2023/09/18 08:21:46;;;;;;;;;;;;;;;;;;5096711;28;19908;-23
2023/09/18 08:24:12;;;;;;;;;;;;;;;;;;5114738;28;19908;-30
2023/09/18 08:26:38;;;;;;;;;;;;;;;;;;5114749;28;19914;-20
2023/09/18 08:29:04;;;;;;;;;;;;;;;;;;5114579;28;19972;-21
2023/09/18 08:31:31;;;;;;;;;;;;;;;;;;5114720;28;19964;-19
2023/09/18 08:33:57;;;;;;;;;;;;;;;;;;5114679;28;20006;-20
2023/09/18 08:36:23;;;;;;;;;;;;;;;;;;5096777;28;19911;-20
2023/09/18 08:38:49;;;;;;;;;;;;;;;;;;5114706;28;19972;-20
2023/09/18 08:41:15;;;;;;;;;;;;;;;;;;5096495;28;20338;-21
2023/09/18 08:43:41;;;;;;;;;;;;;;;;;;5096128;28;19907;-21
2023/09/18 08:46:07;;;;;;;;;;;;;;;;;;5114395;28;20286;-21
2023/09/18 08:48:36;;;;;;;;;;;;;;;;;;5114158;28;19933;-21
2023/09/18 08:51:03;;;;;;;;;;;;;;;;;;5115182;28;20342;-21
2023/09/18 08:53:29;;;;;;;;;;;;;;;;;;5118172;28;19919;-20
2023/09/18 08:55:58;;;;;;;;;;;;;;;;;;5118273;28;19908;-21
2023/09/18 08:58:24;;;;;;;;;;;;;;;;;;5117882;28;19916;-20
2023/09/18 09:00:50;;;;;;;;;;;;;;;;;;5118153;28;19999;-22
2023/09/18 09:03:16;;;;;;;;;;;;;;;;;;5117441;28;20315;-21
2023/09/18 09:05:42;;;;;;;;;;;;;;;;;;5117818;28;19908;-21
2023/09/18 09:08:07;;;;;;;;;;;;;;;;;;5118025;28;20005;-20
2023/09/18 09:10:33;;;;;;;;;;;;;;;;;;5117621;28;19919;-20
2023/09/18 09:13:01;;;;;;;;;;;;;;;;;;5117691;28;20298;-20
2023/09/18 09:15:27;;;;;;;;;;;;;;;;;;5117744;28;19914;-20
2023/09/18 09:17:53;;;;;;;;;;;;;;;;;;5099662;28;19908;-21
2023/09/18 09:20:19;;;;;;;;;;;;;;;;;;5117883;28;20002;-22
2023/09/18 09:22:45;;;;;;;;;;;;;;;;;;5117707;28;19908;-22
2023/09/18 09:25:12;;;;;;;;;;;;;;;;;;5118068;28;20354;-22
2023/09/18 09:27:38;;;;;;;;;;;;;;;;;;5117940;28;20237;-22
2023/09/18 09:30:04;;;;;;;;;;;;;;;;;;5117668;28;20010;-20
2023/09/18 09:32:30;;;;;;;;;;;;;;;;;;5117631;28;20300;-21
2023/09/18 09:34:56;;;;;;;;;;;;;;;;;;5117587;28;19961;-20
2023/09/18 09:37:22;;;;;;;;;;;;;;;;;;5117237;28;20238;-21
2023/09/18 09:39:48;;;;;;;;;;;;;;;;;;5117627;28;19915;-23
2023/09/18 09:42:14;;;;;;;;;;;;;;;;;;5117487;28;19912;-21
2023/09/18 09:44:40;;;;;;;;;;;;;;;;;;5117514;28;19908;-20
2023/09/18 09:47:06;;;;;;;;;;;;;;;;;;5117444;28;19930;-21
2023/09/18 09:49:33;;;;;;;;;;;;;;;;;;5117418;28;19912;-22
2023/09/18 09:51:59;;;;;;;;;;;;;;;;;;5117420;28;20374;-21
2023/09/18 09:54:25;;;;;;;;;;;;;;;;;;5117579;28;19915;-23
2023/09/18 09:56:53;;;;;;;;;;;;;;;;;;5117627;28;19912;-20
2023/09/18 09:59:19;;;;;;;;;;;;;;;;;;5117189;28;19911;-22
2023/09/18 10:01:46;;;;;;;;;;;;;;;;;;5117196;28;19941;-21
2023/09/18 10:04:12;;;;;;;;;;;;;;;;;;5117171;28;20014;-21
2023/09/18 10:06:38;;;;;;;;;;;;;;;;;;5099126;28;19919;-21
2023/09/18 10:09:07;;;;;;;;;;;;;;;;;;5117013;28;20287;-21
2023/09/18 10:11:36;;;;;;;;;;;;;;;;;;5116842;28;19908;-20
2023/09/18 10:14:02;;;;;;;;;;;;;;;;;;5116978;28;20335;-22
2023/09/18 10:16:28;;;;;;;;;;;;;;;;;;5116977;28;19999;-25
2023/09/18 10:18:56;;;;;;;;;;;;;;;;;;5116818;28;19965;-22
2023/09/18 10:21:31;;;;;;;;;;;;;;;;;;5116998;28;19930;-20
2023/09/18 10:23:57;;;;;;;;;;;;;;;;;;5116747;28;19907;-23
2023/09/18 10:26:28;;;;;;;;;;;;;;;;;;5098668;28;19981;-19
2023/09/18 10:28:58;;;;;;;;;;;;;;;;;;5116639;28;19912;-20
2023/09/18 10:31:24;;;;;;;;;;;;;;;;;;5116393;28;20316;-22
2023/09/18 10:33:50;;;;;;;;;;;;;;;;;;5098224;28;19947;-22
2023/09/18 10:36:17;;;;;;;;;;;;;;;;;;5098196;28;19912;-21
2023/09/18 10:38:44;;;;;;;;;;;;;;;;;;5117193;28;20250;-21
2023/09/18 10:41:11;;;;;;;;;;;;;;;;;;5116379;28;20253;-22
2023/09/18 10:43:37;;;;;;;;;;;;;;;;;;5116154;28;19907;-22
2023/09/18 10:46:03;;;;;;;;;;;;;;;;;;5116553;28;19914;-22
2023/09/18 10:48:29;;;;;;;;;;;;;;;;;;5116181;28;19930;-20
2023/09/18 10:50:55;;;;;;;;;;;;;;;;;;5116141;28;20295;-20
2023/09/18 10:53:22;;;;;;;;;;;;;;;;;;5115902;28;20004;-20
2023/09/18 10:55:48;;;;;;;;;;;;;;;;;;5097881;28;20330;-21
2023/09/18 10:58:14;;;;;;;;;;;;;;;;;;5115465;28;20007;-21
2023/09/18 11:00:41;;;;;;;;;;;;;;;;;;5097515;28;19919;-23
2023/09/18 11:03:07;;;;;;;;;;;;;;;;;;5115040;28;19920;-23
2023/09/18 11:05:33;;;;;;;;;;;;;;;;;;5115201;28;19907;-21
2023/09/18 11:07:59;;;;;;;;;;;;;;;;;;5097169;28;19919;-21
2023/09/18 11:10:25;;;;;;;;;;;;;;;;;;5097207;28;19912;-22
2023/09/18 11:12:51;;;;;;;;;;;;;;;;;;5115122;28;19908;-20
2023/09/18 11:15:17;;;;;;;;;;;;;;;;;;5097560;28;19972;-21
2023/09/18 11:17:43;;;;;;;;;;;;;;;;;;5114968;28;20283;-21
2023/09/18 11:20:11;;;;;;;;;;;;;;;;;;5096767;28;19919;-20
2023/09/18 11:22:37;;;;;;;;;;;;;;;;;;5115196;28;19908;-20
2023/09/18 11:25:03;;;;;;;;;;;;;;;;;;5115379;28;19908;-20
2023/09/18 11:27:29;;;;;;;;;;;;;;;;;;5097307;28;19992;-21
2023/09/18 11:29:58;;;;;;;;;;;;;;;;;;5115460;28;19912;-21
2023/09/18 11:32:25;;;;;;;;;;;;;;;;;;5097315;28;20329;-21
2023/09/18 11:34:52;;;;;;;;;;;;;;;;;;5097263;28;20254;-22
2023/09/18 11:37:18;;;;;;;;;;;;;;;;;;5115095;28;19908;-20
2023/09/18 11:39:45;;;;;;;;;;;;;;;;;;5115189;28;19940;-21
2023/09/18 11:42:11;;;;;;;;;;;;;;;;;;5115512;28;20000;-21
2023/09/18 11:44:41;;;;;;;;;;;;;;;;;;5115868;28;19908;-20
2023/09/18 11:47:07;;;;;;;;;;;;;;;;;;5115078;28;20279;-23
2023/09/18 11:49:33;;;;;;;;;;;;;;;;;;5115449;28;19922;-22
2023/09/18 11:52:00;;;;;;;;;;;;;;;;;;5114984;28;20188;-22
2023/09/18 11:54:26;;;;;;;;;;;;;;;;;;5114981;28;19968;-21
2023/09/18 11:56:52;;;;;;;;;;;;;;;;;;5115274;28;19911;-20
2023/09/18 11:59:19;;;;;;;;;;;;;;;;;;5096995;28;19919;-22
2023/09/18 12:01:46;;;;;;;;;;;;;;;;;;5115028;28;19907;-21
2023/09/18 12:04:13;;;;;;;;;;;;;;;;;;5114611;28;19920;-21
2023/09/18 12:06:39;;;;;;;;;;;;;;;;;;5096568;28;19908;-21
2023/09/18 12:09:05;;;;;;;;;;;;;;;;;;5096362;28;20363;-22
2023/09/18 12:11:31;;;;;;;;;;;;;;;;;;5096276;28;20312;-22
2023/09/18 12:13:58;;;;;;;;;;;;;;;;;;5114498;28;20018;-22
2023/09/18 12:16:24;;;;;;;;;;;;;;;;;;5114636;28;19912;-24
2023/09/18 12:18:50;;;;;;;;;;;;;;;;;;5114812;28;20372;-21
2023/09/18 12:21:17;;;;;;;;;;;;;;;;;;5114512;28;19934;-22
2023/09/18 12:23:43;;;;;;;;;;;;;;;;;;5114721;28;19912;-20
2023/09/18 12:26:10;;;;;;;;;;;;;;;;;;5116105;28;19960;-23
2023/09/18 12:28:36;;;;;;;;;;;;;;;;;;5118702;28;20521;-22
2023/09/18 12:31:05;;;;;;;;;;;;;;;;;;5118871;28;19935;-21
2023/09/18 12:33:32;;;;;;;;;;;;;;;;;;5100654;28;19919;-23
2023/09/18 12:35:58;;;;;;;;;;;;;;;;;;5118780;28;20388;-24
2023/09/18 12:38:26;;;;;;;;;;;;;;;;;;5118791;28;19907;-22
2023/09/18 12:40:52;;;;;;;;;;;;;;;;;;5118611;28;19912;-21
2023/09/18 12:43:19;;;;;;;;;;;;;;;;;;5118589;28;20013;-22
2023/09/18 12:45:45;;;;;;;;;;;;;;;;;;5118573;28;19907;-21
2023/09/18 12:48:11;;;;;;;;;;;;;;;;;;5118331;28;19908;-24
2023/09/18 12:50:37;;;;;;;;;;;;;;;;;;5118213;28;19922;-20
2023/09/18 12:53:04;;;;;;;;;;;;;;;;;;5118371;28;20067;-21
2023/09/18 12:55:30;;;;;;;;;;;;;;;;;;5100329;28;19928;-22
2023/09/18 12:57:56;;;;;;;;;;;;;;;;;;5100105;28;19911;-22
2023/09/18 13:00:22;;;;;;;;;;;;;;;;;;5100091;28;19908;-21
2023/09/18 13:02:51;;;;;;;;;;;;;;;;;;5100144;28;19920;-20
2023/09/18 13:05:17;;;;;;;;;;;;;;;;;;5118337;28;19957;-22
2023/09/18 13:07:43;;;;;;;;;;;;;;;;;;5118209;28;19995;-22
2023/09/18 13:10:10;;;;;;;;;;;;;;;;;;5118286;28;19912;-21
2023/09/18 13:12:38;;;;;;;;;;;;;;;;;;5116934;28;20206;-22
2023/09/18 13:15:13;;;;;;;;;;;;;;;;;;5099961;28;19908;-21
2023/09/18 13:17:39;;;;;;;;;;;;;;;;;;5118374;28;20244;-22
2023/09/18 13:20:07;;;;;;;;;;;;;;;;;;5118023;28;19907;-22
2023/09/18 13:22:33;;;;;;;;;;;;;;;;;;5117661;28;19904;-23
2023/09/18 13:24:59;;;;;;;;;;;;;;;;;;5117708;28;19914;-21
2023/09/18 13:27:25;;;;;;;;;;;;;;;;;;5117820;28;19933;-20
2023/09/18 13:29:51;;;;;;;;;;;;;;;;;;5099368;28;19912;-20
2023/09/18 13:32:17;;;;;;;;;;;;;;;;;;5117561;28;19918;-21
2023/09/18 13:34:45;;;;;;;;;;;;;;;;;;5117711;28;19919;-20
2023/09/18 13:37:10;;;;;;;;;;;;;;;;;;5116995;28;19908;-20
2023/09/18 13:39:36;;;;;;;;;;;;;;;;;;5117294;28;19988;-21
2023/09/18 13:42:02;;;;;;;;;;;;;;;;;;5117203;28;19912;-22
2023/09/18 13:44:28;;;;;;;;;;;;;;;;;;5099212;28;19907;-23
2023/09/18 13:46:54;;;;;;;;;;;;;;;;;;5117305;28;19949;-20
2023/09/18 13:49:21;;;;;;;;;;;;;;;;;;5117203;28;20322;-20
2023/09/18 13:51:47;;;;;;;;;;;;;;;;;;5117210;28;19908;-21
2023/09/18 13:54:14;;;;;;;;;;;;;;;;;;5117283;28;19930;-20
2023/09/18 13:56:40;;;;;;;;;;;;;;;;;;5117153;28;20384;-20
2023/09/18 13:59:07;;;;;;;;;;;;;;;;;;5117311;28;19912;-23
2023/09/18 14:01:33;;;;;;;;;;;;;;;;;;5117001;28;20365;-21
2023/09/18 14:03:59;;;;;;;;;;;;;;;;;;5116726;28;19972;-22
2023/09/18 14:06:24;;;;;;;;;;;;;;;;;;5116902;28;19908;-21
2023/09/18 14:08:50;;;;;;;;;;;;;;;;;;5117321;28;19907;-23
2023/09/18 14:11:18;;;;;;;;;;;;;;;;;;5116704;28;20009;-20
2023/09/18 14:13:44;;;;;;;;;;;;;;;;;;5116572;28;20259;-21
2023/09/18 14:16:10;;;;;;;;;;;;;;;;;;5116801;28;20064;-20
2023/09/18 14:18:36;;;;;;;;;;;;;;;;;;5116972;28;19923;-21
2023/09/18 14:21:02;;;;;;;;;;;;;;;;;;5116682;28;19907;-20
2023/09/18 14:23:28;;;;;;;;;;;;;;;;;;5116829;28;19916;-21
2023/09/18 14:25:55;;;;;;;;;;;;;;;;;;5117124;28;19907;-22
2023/09/18 14:28:21;;;;;;;;;;;;;;;;;;5116528;28;19908;-21
2023/09/18 14:30:47;;;;;;;;;;;;;;;;;;5116588;28;19918;-22
2023/09/18 14:33:14;;;;;;;;;;;;;;;;;;5098481;28;19972;-20
2023/09/18 14:35:40;;;;;;;;;;;;;;;;;;5116662;28;19908;-21
2023/09/18 14:38:06;;;;;;;;;;;;;;;;;;5098383;28;19911;-21
2023/09/18 14:40:32;;;;;;;;;;;;;;;;;;5116723;28;20249;-21
2023/09/18 14:42:58;;;;;;;;;;;;;;;;;;5098089;28;19912;-20
2023/09/18 14:45:24;;;;;;;;;;;;;;;;;;5116192;28;20219;-21
2023/09/18 14:47:50;;;;;;;;;;;;;;;;;;5115901;28;20026;-22
2023/09/18 14:50:16;;;;;;;;;;;;;;;;;;5115309;28;19916;-23
2023/09/18 14:52:42;;;;;;;;;;;;;;;;;;5098012;28;19940;-20
2023/09/18 14:55:08;;;;;;;;;;;;;;;;;;5097721;28;19908;-21
2023/09/18 14:57:34;;;;;;;;;;;;;;;;;;5097856;28;19908;-20
2023/09/18 15:00:00;;;;;;;;;;;;;;;;;;5115849;28;19914;-21
2023/09/18 15:02:31;;;;;;;;;;;;;;;;;;5115068;28;19924;-23
2023/09/18 15:04:57;;;;;;;;;;;;;;;;;;5115617;28;19911;-22
2023/09/18 15:07:23;;;;;;;;;;;;;;;;;;5115866;28;19926;-21
2023/09/18 15:09:49;;;;;;;;;;;;;;;;;;5115626;28;19916;-21
2023/09/18 15:12:15;;;;;;;;;;;;;;;;;;5115271;28;19916;-22
2023/09/18 15:14:41;;;;;;;;;;;;;;;;;;5114976;28;19908;-21
2023/09/18 15:17:08;;;;;;;;;;;;;;;;;;5114648;28;20048;-19
2023/09/18 15:19:33;;;;;;;;;;;;;;;;;;5114834;28;20045;-21
2023/09/18 15:22:01;;;;;;;;;;;;;;;;;;5114443;28;20266;-22
2023/09/18 15:24:27;;;;;;;;;;;;;;;;;;5114709;28;19911;-19
2023/09/18 15:26:53;;;;;;;;;;;;;;;;;;5114544;28;19960;-21
2023/09/18 15:29:19;;;;;;;;;;;;;;;;;;5096446;28;19958;-21
2023/09/18 15:31:46;;;;;;;;;;;;;;;;;;5096445;28;19965;-21
2023/09/18 15:34:12;;;;;;;;;;;;;;;;;;5114537;28;19915;-23
2023/09/18 15:36:39;;;;;;;;;;;;;;;;;;5114810;28;20353;-20
2023/09/18 15:39:05;;;;;;;;;;;;;;;;;;5114602;28;19954;-20
2023/09/18 15:41:30;;;;;;;;;;;;;;;;;;5115131;28;19908;-22
2023/09/18 15:43:56;;;;;;;;;;;;;;;;;;5115085;28;19969;-21
2023/09/18 15:46:23;;;;;;;;;;;;;;;;;;5115564;28;20242;-22
2023/09/18 15:48:50;;;;;;;;;;;;;;;;;;5097194;28;19946;-20
2023/09/18 15:51:16;;;;;;;;;;;;;;;;;;5115311;28;19911;-22
2023/09/18 15:53:42;;;;;;;;;;;;;;;;;;5115264;28;19939;-21
2023/09/18 15:56:08;;;;;;;;;;;;;;;;;;5115197;28;19907;-21
2023/09/18 15:58:35;;;;;;;;;;;;;;;;;;5115439;28;19913;-20
2023/09/18 16:01:01;;;;;;;;;;;;;;;;;;5114797;28;19918;-23
2023/09/18 16:03:27;;;;;;;;;;;;;;;;;;5114945;28;19920;-20
2023/09/18 16:05:55;;;;;;;;;;;;;;;;;;5115169;28;19961;-22
2023/09/18 16:08:21;;;;;;;;;;;;;;;;;;5114728;28;19926;-20
2023/09/18 16:10:47;;;;;;;;;;;;;;;;;;5114426;28;19920;-20
2023/09/18 16:13:13;;;;;;;;;;;;;;;;;;5114699;28;20004;-21
2023/09/18 16:15:39;;;;;;;;;;;;;;;;;;5114883;28;19919;-21
2023/09/18 16:18:05;;;;;;;;;;;;;;;;;;5114931;28;19919;-21
2023/09/18 16:20:31;;;;;;;;;;;;;;;;;;5096287;28;19908;-21
2023/09/18 16:22:57;;;;;;;;;;;;;;;;;;5114390;28;19965;-21
2023/09/18 16:25:23;;;;;;;;;;;;;;;;;;5114958;28;20289;-23
2023/09/18 16:27:50;;;;;;;;;;;;;;;;;;5114776;28;19998;-20
2023/09/18 16:30:16;;;;;;;;;;;;;;;;;;5114432;28;20006;-22
2023/09/18 16:32:42;;;;;;;;;;;;;;;;;;5114377;28;19937;-20
2023/09/18 16:35:08;;;;;;;;;;;;;;;;;;5114696;28;19908;-21
2023/09/18 16:37:34;;;;;;;;;;;;;;;;;;5114647;28;19939;-21
2023/09/18 16:40:00;;;;;;;;;;;;;;;;;;5114620;28;19990;-22
2023/09/18 16:42:26;;;;;;;;;;;;;;;;;;5114844;28;20350;-20